sensor_id;sensor_type;location;lat;lon;timestamp;temperature;humidity
29803;DHT22;16702;50.898;4.662;2024-02-21T00:00:05;10.40;99.90
29803;DHT22;16702;50.898;4.662;2024-02-21T00:05:22;10.40;99.90
29803;DHT22;16702;50.898;4.662;2024-02-21T00:07:09;10.40;99.90
29803;DHT22;16702;50.898;4.662;2024-02-21T00:09:53;10.40;99.90
29803;DHT22;16702;50.898;4.662;2024-02-21T00:12:44;10.40;99.90
29803;DHT22;16702;50.898;4.662;2024-02-21T00:19:08;10.40;99.90
29803;DHT22;16702;50.898;4.662;2024-02-21T00:22:07;10.30;99.90
29803;DHT22;16702;50.898;4.662;2024-02-21T00:24:51;10.40;99.90
29803;DHT22;16702;50.898;4.662;2024-02-21T00:27:42;10.40;99.90
29803;DHT22;16702;50.898;4.662;2024-02-21T00:30:57;10.40;99.90
29803;DHT22;16702;50.898;4.662;2024-02-21T00:35:25;10.40;99.90
29803;DHT22;16702;50.898;4.662;2024-02-21T00:37:18;10.40;99.90
29803;DHT22;16702;50.898;4.662;2024-02-21T00:40:52;10.40;99.90
29803;DHT22;16702;50.898;4.662;2024-02-21T00:43:31;10.40;99.90
29803;DHT22;16702;50.898;4.662;2024-02-21T00:50:04;10.50;99.90
29803;DHT22;16702;50.898;4.662;2024-02-21T00:52:52;10.40;99.90
29803;DHT22;16702;50.898;4.662;2024-02-21T00:55:35;10.40;99.90
29803;DHT22;16702;50.898;4.662;2024-02-21T00:58:40;10.50;99.90
29803;DHT22;16702;50.898;4.662;2024-02-21T01:01:51;10.40;99.90
29803;DHT22;16702;50.898;4.662;2024-02-21T01:05:01;10.50;99.90
29803;DHT22;16702;50.898;4.662;2024-02-21T01:07:55;10.40;99.90
29803;DHT22;16702;50.898;4.662;2024-02-21T01:10:38;10.50;99.90
29803;DHT22;16702;50.898;4.662;2024-02-21T01:13:15;10.40;99.90
29803;DHT22;16702;50.898;4.662;2024-02-21T01:16:00;10.40;99.90
29803;DHT22;16702;50.898;4.662;2024-02-21T01:22:50;10.40;99.90
29803;DHT22;16702;50.898;4.662;2024-02-21T01:26:07;10.40;99.90
29803;DHT22;16702;50.898;4.662;2024-02-21T01:29:06;10.40;99.90
29803;DHT22;16702;50.898;4.662;2024-02-21T01:31:46;10.40;99.90
29803;DHT22;16702;50.898;4.662;2024-02-21T01:34:31;10.30;99.90
29803;DHT22;16702;50.898;4.662;2024-02-21T01:37:55;10.30;99.90
29803;DHT22;16702;50.898;4.662;2024-02-21T01:41:15;10.40;99.90
29803;DHT22;16702;50.898;4.662;2024-02-21T01:44:22;10.40;99.90
29803;DHT22;16702;50.898;4.662;2024-02-21T01:47:06;10.40;99.90
29803;DHT22;16702;50.898;4.662;2024-02-21T01:49:56;10.40;99.90
29803;DHT22;16702;50.898;4.662;2024-02-21T01:52:37;10.40;99.90
29803;DHT22;16702;50.898;4.662;2024-02-21T01:55:47;10.40;99.90
29803;DHT22;16702;50.898;4.662;2024-02-21T01:58:44;10.40;99.90
29803;DHT22;16702;50.898;4.662;2024-02-21T02:01:56;10.40;99.90
29803;DHT22;16702;50.898;4.662;2024-02-21T02:05:58;10.40;99.90
29803;DHT22;16702;50.898;4.662;2024-02-21T02:07:54;10.30;99.90
29803;DHT22;16702;50.898;4.662;2024-02-21T02:12:47;10.40;99.90
29803;DHT22;16702;50.898;4.662;2024-02-21T02:15:05;10.40;99.90
29803;DHT22;16702;50.898;4.662;2024-02-21T02:20:40;10.30;99.90
29803;DHT22;16702;50.898;4.662;2024-02-21T02:21:55;10.30;99.90
29803;DHT22;16702;50.898;4.662;2024-02-21T02:24:44;10.40;99.90
29803;DHT22;16702;50.898;4.662;2024-02-21T02:27:51;10.40;99.90
29803;DHT22;16702;50.898;4.662;2024-02-21T02:31:02;10.30;99.90
29803;DHT22;16702;50.898;4.662;2024-02-21T02:34:05;10.30;99.90
29803;DHT22;16702;50.898;4.662;2024-02-21T02:36:42;10.30;99.90
29803;DHT22;16702;50.898;4.662;2024-02-21T02:40:02;10.30;99.90
29803;DHT22;16702;50.898;4.662;2024-02-21T02:46:49;10.40;99.90
29803;DHT22;16702;50.898;4.662;2024-02-21T02:49:52;10.30;99.90
29803;DHT22;16702;50.898;4.662;2024-02-21T02:52:45;10.30;99.90
29803;DHT22;16702;50.898;4.662;2024-02-21T02:55:41;10.30;99.90
29803;DHT22;16702;50.898;4.662;2024-02-21T03:02:24;10.30;99.90
29803;DHT22;16702;50.898;4.662;2024-02-21T03:05:45;10.30;99.90
29803;DHT22;16702;50.898;4.662;2024-02-21T03:08:51;10.30;99.90
29803;DHT22;16702;50.898;4.662;2024-02-21T03:12:05;10.30;99.90
29803;DHT22;16702;50.898;4.662;2024-02-21T03:15:27;10.30;99.90
29803;DHT22;16702;50.898;4.662;2024-02-21T03:18:35;10.30;99.90
29803;DHT22;16702;50.898;4.662;2024-02-21T03:21:30;10.30;99.90
29803;DHT22;16702;50.898;4.662;2024-02-21T03:24:41;10.50;99.90
29803;DHT22;16702;50.898;4.662;2024-02-21T03:27:30;10.30;99.90
29803;DHT22;16702;50.898;4.662;2024-02-21T03:30:19;10.30;99.90
29803;DHT22;16702;50.898;4.662;2024-02-21T03:33:26;10.40;99.90
29803;DHT22;16702;50.898;4.662;2024-02-21T03:36:16;10.40;99.90
29803;DHT22;16702;50.898;4.662;2024-02-21T03:39:10;10.40;99.90
29803;DHT22;16702;50.898;4.662;2024-02-21T03:43:19;10.40;99.90
29803;DHT22;16702;50.898;4.662;2024-02-21T03:45:30;10.30;99.90
29803;DHT22;16702;50.898;4.662;2024-02-21T03:52:33;10.30;99.90
29803;DHT22;16702;50.898;4.662;2024-02-21T03:54:58;10.30;99.90
29803;DHT22;16702;50.898;4.662;2024-02-21T03:58:09;10.30;99.90
29803;DHT22;16702;50.898;4.662;2024-02-21T04:01:46;10.30;99.90
29803;DHT22;16702;50.898;4.662;2024-02-21T04:04:36;10.30;99.90
29803;DHT22;16702;50.898;4.662;2024-02-21T04:07:55;10.30;99.90
29803;DHT22;16702;50.898;4.662;2024-02-21T04:11:08;10.40;99.90
29803;DHT22;16702;50.898;4.662;2024-02-21T04:14:03;10.30;99.90
29803;DHT22;16702;50.898;4.662;2024-02-21T04:16:55;10.30;99.90
29803;DHT22;16702;50.898;4.662;2024-02-21T04:20:14;10.20;99.90
29803;DHT22;16702;50.898;4.662;2024-02-21T04:23:32;10.20;99.90
29803;DHT22;16702;50.898;4.662;2024-02-21T04:26:58;10.20;99.90
29803;DHT22;16702;50.898;4.662;2024-02-21T04:30:06;10.20;99.90
29803;DHT22;16702;50.898;4.662;2024-02-21T04:32:48;10.10;99.90
29803;DHT22;16702;50.898;4.662;2024-02-21T04:37:26;10.20;99.90
29803;DHT22;16702;50.898;4.662;2024-02-21T04:39:50;10.30;99.90
29803;DHT22;16702;50.898;4.662;2024-02-21T04:43:00;10.40;99.90
29803;DHT22;16702;50.898;4.662;2024-02-21T04:46:34;10.30;99.90
29803;DHT22;16702;50.898;4.662;2024-02-21T04:49:45;10.30;99.90
29803;DHT22;16702;50.898;4.662;2024-02-21T04:52:54;10.30;99.90
29803;DHT22;16702;50.898;4.662;2024-02-21T04:55:50;10.30;99.90
29803;DHT22;16702;50.898;4.662;2024-02-21T04:59:43;10.30;99.90
29803;DHT22;16702;50.898;4.662;2024-02-21T05:02:13;10.30;99.90
29803;DHT22;16702;50.898;4.662;2024-02-21T05:05:07;10.30;99.90
29803;DHT22;16702;50.898;4.662;2024-02-21T05:08:22;10.30;99.90
29803;DHT22;16702;50.898;4.662;2024-02-21T05:10:59;10.30;99.90
29803;DHT22;16702;50.898;4.662;2024-02-21T05:13:50;10.30;99.90
29803;DHT22;16702;50.898;4.662;2024-02-21T05:18:19;10.20;99.90
29803;DHT22;16702;50.898;4.662;2024-02-21T05:20:33;10.20;99.90
29803;DHT22;16702;50.898;4.662;2024-02-21T05:24:13;10.30;99.90
29803;DHT22;16702;50.898;4.662;2024-02-21T05:26:42;10.40;99.90
29803;DHT22;16702;50.898;4.662;2024-02-21T05:29:36;10.30;99.90
29803;DHT22;16702;50.898;4.662;2024-02-21T05:33:03;10.30;99.90
29803;DHT22;16702;50.898;4.662;2024-02-21T05:36:05;10.40;99.90
29803;DHT22;16702;50.898;4.662;2024-02-21T05:39:20;10.40;99.90
29803;DHT22;16702;50.898;4.662;2024-02-21T05:42:23;10.30;99.90
29803;DHT22;16702;50.898;4.662;2024-02-21T05:45:28;10.30;99.90
29803;DHT22;16702;50.898;4.662;2024-02-21T05:48:39;10.40;99.90
29803;DHT22;16702;50.898;4.662;2024-02-21T05:52:01;10.30;99.90
29803;DHT22;16702;50.898;4.662;2024-02-21T05:55:22;10.30;99.90
29803;DHT22;16702;50.898;4.662;2024-02-21T06:01:45;10.40;99.90
29803;DHT22;16702;50.898;4.662;2024-02-21T06:04:36;10.40;99.90
29803;DHT22;16702;50.898;4.662;2024-02-21T06:07:45;10.30;99.90
29803;DHT22;16702;50.898;4.662;2024-02-21T06:10:34;10.40;99.90
29803;DHT22;16702;50.898;4.662;2024-02-21T06:14:02;10.30;99.90
29803;DHT22;16702;50.898;4.662;2024-02-21T06:17:25;10.40;99.90
29803;DHT22;16702;50.898;4.662;2024-02-21T06:21:18;10.40;99.90
29803;DHT22;16702;50.898;4.662;2024-02-21T06:23:58;10.40;99.90
29803;DHT22;16702;50.898;4.662;2024-02-21T06:27:25;10.40;99.90
29803;DHT22;16702;50.898;4.662;2024-02-21T06:30:52;10.40;99.90
29803;DHT22;16702;50.898;4.662;2024-02-21T06:33:51;10.40;99.90
29803;DHT22;16702;50.898;4.662;2024-02-21T06:37:17;10.30;99.90
29803;DHT22;16702;50.898;4.662;2024-02-21T06:40:14;10.30;99.90
29803;DHT22;16702;50.898;4.662;2024-02-21T06:45:53;10.40;99.90
29803;DHT22;16702;50.898;4.662;2024-02-21T06:48:00;10.30;99.90
29803;DHT22;16702;50.898;4.662;2024-02-21T06:50:58;10.40;99.90
29803;DHT22;16702;50.898;4.662;2024-02-21T06:53:48;10.30;99.90
29803;DHT22;16702;50.898;4.662;2024-02-21T06:57:34;10.30;99.90
29803;DHT22;16702;50.898;4.662;2024-02-21T07:00:23;10.30;99.90
29803;DHT22;16702;50.898;4.662;2024-02-21T07:03:46;10.20;99.90
29803;DHT22;16702;50.898;4.662;2024-02-21T07:07:10;10.20;99.90
29803;DHT22;16702;50.898;4.662;2024-02-21T07:10:28;10.20;99.90
29803;DHT22;16702;50.898;4.662;2024-02-21T07:15:42;10.20;99.90
29803;DHT22;16702;50.898;4.662;2024-02-21T07:17:08;10.20;99.90
29803;DHT22;16702;50.898;4.662;2024-02-21T07:21:45;10.20;99.90
29803;DHT22;16702;50.898;4.662;2024-02-21T07:26:23;10.20;99.90
29803;DHT22;16702;50.898;4.662;2024-02-21T07:27:13;10.10;99.90
29803;DHT22;16702;50.898;4.662;2024-02-21T07:29:54;10.10;99.90
29803;DHT22;16702;50.898;4.662;2024-02-21T07:34:21;10.10;99.90
29803;DHT22;16702;50.898;4.662;2024-02-21T07:36:39;10.10;99.90
29803;DHT22;16702;50.898;4.662;2024-02-21T07:39:53;10.10;99.90
29803;DHT22;16702;50.898;4.662;2024-02-21T07:47:26;10.10;99.90
29803;DHT22;16702;50.898;4.662;2024-02-21T07:49:54;10.20;99.90
29803;DHT22;16702;50.898;4.662;2024-02-21T07:53:01;10.10;99.90
29803;DHT22;16702;50.898;4.662;2024-02-21T07:59:19;10.10;99.90
29803;DHT22;16702;50.898;4.662;2024-02-21T08:02:55;10.00;99.90
29803;DHT22;16702;50.898;4.662;2024-02-21T08:06:31;10.00;99.90
29803;DHT22;16702;50.898;4.662;2024-02-21T08:09:48;10.10;99.90
29803;DHT22;16702;50.898;4.662;2024-02-21T08:12:29;10.10;99.90
29803;DHT22;16702;50.898;4.662;2024-02-21T08:15:24;10.10;99.90
29803;DHT22;16702;50.898;4.662;2024-02-21T08:18:48;10.10;99.90
29803;DHT22;16702;50.898;4.662;2024-02-21T08:21:58;10.10;99.90
29803;DHT22;16702;50.898;4.662;2024-02-21T08:24:55;10.10;99.90
29803;DHT22;16702;50.898;4.662;2024-02-21T08:27:57;10.10;99.90
29803;DHT22;16702;50.898;4.662;2024-02-21T08:31:12;10.10;99.90
29803;DHT22;16702;50.898;4.662;2024-02-21T08:34:21;10.00;99.90
29803;DHT22;16702;50.898;4.662;2024-02-21T08:38:45;10.00;99.90
29803;DHT22;16702;50.898;4.662;2024-02-21T08:42:28;10.10;99.90
29803;DHT22;16702;50.898;4.662;2024-02-21T08:44:37;10.10;99.90
29803;DHT22;16702;50.898;4.662;2024-02-21T08:48:26;10.10;99.90
29803;DHT22;16702;50.898;4.662;2024-02-21T08:51:19;10.10;99.90
29803;DHT22;16702;50.898;4.662;2024-02-21T08:54:29;10.10;99.90
29803;DHT22;16702;50.898;4.662;2024-02-21T08:57:57;10.20;99.90
29803;DHT22;16702;50.898;4.662;2024-02-21T09:00:30;10.10;99.90
29803;DHT22;16702;50.898;4.662;2024-02-21T09:03:07;10.10;99.90
29803;DHT22;16702;50.898;4.662;2024-02-21T09:06:15;10.10;99.90
29803;DHT22;16702;50.898;4.662;2024-02-21T09:09:34;10.20;99.90
29803;DHT22;16702;50.898;4.662;2024-02-21T09:15:17;10.20;99.90
29803;DHT22;16702;50.898;4.662;2024-02-21T09:17:00;10.10;99.90
29803;DHT22;16702;50.898;4.662;2024-02-21T09:19:24;10.20;99.90
29803;DHT22;16702;50.898;4.662;2024-02-21T09:22:21;10.20;99.90
29803;DHT22;16702;50.898;4.662;2024-02-21T09:25:52;10.10;99.90
29803;DHT22;16702;50.898;4.662;2024-02-21T09:38:30;10.60;99.90
29803;DHT22;16702;50.898;4.662;2024-02-21T09:40:30;10.70;99.90
29803;DHT22;16702;50.898;4.662;2024-02-21T09:43:38;10.60;99.90
29803;DHT22;16702;50.898;4.662;2024-02-21T09:47:05;10.60;99.90
29803;DHT22;16702;50.898;4.662;2024-02-21T09:50:13;10.60;99.90
29803;DHT22;16702;50.898;4.662;2024-02-21T09:53:40;10.50;99.90
29803;DHT22;16702;50.898;4.662;2024-02-21T09:56:49;10.50;99.90
29803;DHT22;16702;50.898;4.662;2024-02-21T09:59:58;10.60;99.90
29803;DHT22;16702;50.898;4.662;2024-02-21T10:02:40;10.80;99.90
29803;DHT22;16702;50.898;4.662;2024-02-21T10:05:49;10.70;99.90
29803;DHT22;16702;50.898;4.662;2024-02-21T10:11:29;10.80;99.90
29803;DHT22;16702;50.898;4.662;2024-02-21T10:16:45;10.90;99.90
29803;DHT22;16702;50.898;4.662;2024-02-21T10:22:59;10.80;99.90
29803;DHT22;16702;50.898;4.662;2024-02-21T10:24:06;10.80;99.90
29803;DHT22;16702;50.898;4.662;2024-02-21T10:29:50;10.80;99.90
29803;DHT22;16702;50.898;4.662;2024-02-21T10:30:40;10.80;99.90
29803;DHT22;16702;50.898;4.662;2024-02-21T10:35:29;11.00;99.90
29803;DHT22;16702;50.898;4.662;2024-02-21T10:37:45;10.90;99.90
29803;DHT22;16702;50.898;4.662;2024-02-21T10:41:09;10.90;99.90
29803;DHT22;16702;50.898;4.662;2024-02-21T10:44:38;10.90;99.90
29803;DHT22;16702;50.898;4.662;2024-02-21T10:47:03;11.00;99.90
29803;DHT22;16702;50.898;4.662;2024-02-21T10:54:02;11.00;99.90
29803;DHT22;16702;50.898;4.662;2024-02-21T10:57:39;11.00;99.90
29803;DHT22;16702;50.898;4.662;2024-02-21T11:01:00;11.00;99.90
29803;DHT22;16702;50.898;4.662;2024-02-21T11:10:46;11.10;99.90
29803;DHT22;16702;50.898;4.662;2024-02-21T11:14:18;11.10;99.90
29803;DHT22;16702;50.898;4.662;2024-02-21T11:18:03;11.10;99.90
29803;DHT22;16702;50.898;4.662;2024-02-21T11:24:29;11.20;99.90
29803;DHT22;16702;50.898;4.662;2024-02-21T11:28:06;11.20;99.90
29803;DHT22;16702;50.898;4.662;2024-02-21T11:31:27;11.20;99.90
29803;DHT22;16702;50.898;4.662;2024-02-21T11:34:42;11.20;99.90
29803;DHT22;16702;50.898;4.662;2024-02-21T11:37:56;11.20;99.90
29803;DHT22;16702;50.898;4.662;2024-02-21T11:41:23;11.30;99.90
29803;DHT22;16702;50.898;4.662;2024-02-21T11:44:45;11.30;99.90
29803;DHT22;16702;50.898;4.662;2024-02-21T11:47:28;11.20;99.90
29803;DHT22;16702;50.898;4.662;2024-02-21T11:52:39;11.30;99.90
29803;DHT22;16702;50.898;4.662;2024-02-21T11:54:09;11.20;99.90
29803;DHT22;16702;50.898;4.662;2024-02-21T11:56:59;11.30;99.90
29803;DHT22;16702;50.898;4.662;2024-02-21T12:01:33;11.30;99.90
29803;DHT22;16702;50.898;4.662;2024-02-21T12:03:20;11.30;99.90
29803;DHT22;16702;50.898;4.662;2024-02-21T12:06:30;11.30;99.90
29803;DHT22;16702;50.898;4.662;2024-02-21T12:09:16;11.20;99.90
29803;DHT22;16702;50.898;4.662;2024-02-21T12:12:23;11.30;99.90
29803;DHT22;16702;50.898;4.662;2024-02-21T12:15:26;11.20;99.90
29803;DHT22;16702;50.898;4.662;2024-02-21T12:19:05;11.20;99.90
29803;DHT22;16702;50.898;4.662;2024-02-21T12:25:39;11.20;99.90
29803;DHT22;16702;50.898;4.662;2024-02-21T12:29:17;11.20;99.90
29803;DHT22;16702;50.898;4.662;2024-02-21T12:32:16;11.30;99.90
29803;DHT22;16702;50.898;4.662;2024-02-21T12:35:37;11.30;99.90
29803;DHT22;16702;50.898;4.662;2024-02-21T12:38:34;11.30;99.90
29803;DHT22;16702;50.898;4.662;2024-02-21T12:41:44;11.30;99.90
29803;DHT22;16702;50.898;4.662;2024-02-21T12:44:52;11.30;99.90
29803;DHT22;16702;50.898;4.662;2024-02-21T12:48:20;11.30;99.90
29803;DHT22;16702;50.898;4.662;2024-02-21T12:51:22;11.30;99.90
29803;DHT22;16702;50.898;4.662;2024-02-21T12:55:15;11.30;99.90
29803;DHT22;16702;50.898;4.662;2024-02-21T12:58:46;11.40;99.90
29803;DHT22;16702;50.898;4.662;2024-02-21T13:01:58;11.30;99.90
29803;DHT22;16702;50.898;4.662;2024-02-21T13:04:47;11.40;99.90
29803;DHT22;16702;50.898;4.662;2024-02-21T13:08:32;11.40;99.90
29803;DHT22;16702;50.898;4.662;2024-02-21T13:11:17;11.50;99.90
29803;DHT22;16702;50.898;4.662;2024-02-21T13:14:16;11.40;99.90
29803;DHT22;16702;50.898;4.662;2024-02-21T13:18:30;11.40;99.90
29803;DHT22;16702;50.898;4.662;2024-02-21T13:20:40;11.40;99.90
29803;DHT22;16702;50.898;4.662;2024-02-21T13:24:06;11.40;99.90
29803;DHT22;16702;50.898;4.662;2024-02-21T13:26:51;11.40;99.90
29803;DHT22;16702;50.898;4.662;2024-02-21T13:29:49;11.40;99.90
29803;DHT22;16702;50.898;4.662;2024-02-21T13:32:57;11.50;99.90
29803;DHT22;16702;50.898;4.662;2024-02-21T13:35:54;11.40;99.90
29803;DHT22;16702;50.898;4.662;2024-02-21T13:42:07;11.40;99.90
29803;DHT22;16702;50.898;4.662;2024-02-21T13:44:56;11.30;99.90
29803;DHT22;16702;50.898;4.662;2024-02-21T13:47:42;11.40;99.90
29803;DHT22;16702;50.898;4.662;2024-02-21T13:50:42;11.40;99.90
29803;DHT22;16702;50.898;4.662;2024-02-21T13:53:59;11.40;99.90
29803;DHT22;16702;50.898;4.662;2024-02-21T13:56:47;11.40;99.90
29803;DHT22;16702;50.898;4.662;2024-02-21T14:02:32;11.40;99.90
29803;DHT22;16702;50.898;4.662;2024-02-21T14:03:08;11.40;99.90
29803;DHT22;16702;50.898;4.662;2024-02-21T14:06:00;11.30;99.90
29803;DHT22;16702;50.898;4.662;2024-02-21T14:09:07;11.30;99.90
29803;DHT22;16702;50.898;4.662;2024-02-21T14:12:11;11.40;99.90
29803;DHT22;16702;50.898;4.662;2024-02-21T14:15:16;11.40;99.90
29803;DHT22;16702;50.898;4.662;2024-02-21T14:19:08;11.30;99.90
29803;DHT22;16702;50.898;4.662;2024-02-21T14:26:14;11.20;99.90
29803;DHT22;16702;50.898;4.662;2024-02-21T14:29:16;11.10;99.90
29803;DHT22;16702;50.898;4.662;2024-02-21T14:32:24;11.10;99.90
29803;DHT22;16702;50.898;4.662;2024-02-21T14:37:23;11.10;99.90
29803;DHT22;16702;50.898;4.662;2024-02-21T14:39:09;11.10;99.90
29803;DHT22;16702;50.898;4.662;2024-02-21T14:45:58;11.10;99.90
29803;DHT22;16702;50.898;4.662;2024-02-21T14:49:17;11.00;99.90
29803;DHT22;16702;50.898;4.662;2024-02-21T14:52:30;11.10;99.90
29803;DHT22;16702;50.898;4.662;2024-02-21T14:56:06;11.10;99.90
29803;DHT22;16702;50.898;4.662;2024-02-21T15:03:07;11.00;99.90
29803;DHT22;16702;50.898;4.662;2024-02-21T15:08:51;11.10;99.90
29803;DHT22;16702;50.898;4.662;2024-02-21T15:09:53;11.00;99.90
29803;DHT22;16702;50.898;4.662;2024-02-21T15:13:00;10.90;99.90
29803;DHT22;16702;50.898;4.662;2024-02-21T15:16:03;11.00;99.90
29803;DHT22;16702;50.898;4.662;2024-02-21T15:19:36;10.90;99.90
29803;DHT22;16702;50.898;4.662;2024-02-21T15:22:12;10.90;99.90
29803;DHT22;16702;50.898;4.662;2024-02-21T15:25:21;10.90;99.90
29803;DHT22;16702;50.898;4.662;2024-02-21T15:31:32;10.80;99.90
29803;DHT22;16702;50.898;4.662;2024-02-21T15:34:32;10.70;99.90
29803;DHT22;16702;50.898;4.662;2024-02-21T15:37:33;10.80;99.90
29803;DHT22;16702;50.898;4.662;2024-02-21T15:41:15;10.80;99.90
29803;DHT22;16702;50.898;4.662;2024-02-21T15:43:51;10.80;99.90
29803;DHT22;16702;50.898;4.662;2024-02-21T15:50:26;10.70;99.90
29803;DHT22;16702;50.898;4.662;2024-02-21T15:53:30;10.70;99.90
29803;DHT22;16702;50.898;4.662;2024-02-21T15:57:12;10.60;99.90
29803;DHT22;16702;50.898;4.662;2024-02-21T16:00:04;10.70;99.90
29803;DHT22;16702;50.898;4.662;2024-02-21T16:03:04;10.60;99.90
29803;DHT22;16702;50.898;4.662;2024-02-21T16:06:14;10.60;99.90
29803;DHT22;16702;50.898;4.662;2024-02-21T16:09:52;10.60;99.90
29803;DHT22;16702;50.898;4.662;2024-02-21T16:12:32;10.60;99.90
29803;DHT22;16702;50.898;4.662;2024-02-21T16:15:29;10.60;99.90
29803;DHT22;16702;50.898;4.662;2024-02-21T16:18:10;10.60;99.90
29803;DHT22;16702;50.898;4.662;2024-02-21T16:24:05;10.50;99.90
29803;DHT22;16702;50.898;4.662;2024-02-21T16:24:49;10.60;99.90
29803;DHT22;16702;50.898;4.662;2024-02-21T16:31:07;10.50;99.90
29803;DHT22;16702;50.898;4.662;2024-02-21T16:34:28;10.40;99.90
29803;DHT22;16702;50.898;4.662;2024-02-21T16:40:00;10.40;99.90
29803;DHT22;16702;50.898;4.662;2024-02-21T16:40:52;10.40;99.90
29803;DHT22;16702;50.898;4.662;2024-02-21T16:43:57;10.40;99.90
29803;DHT22;16702;50.898;4.662;2024-02-21T16:46:43;10.40;99.90
29803;DHT22;16702;50.898;4.662;2024-02-21T16:50:12;10.40;99.90
29803;DHT22;16702;50.898;4.662;2024-02-21T16:53:32;10.40;99.90
29803;DHT22;16702;50.898;4.662;2024-02-21T16:56:23;10.40;99.90
29803;DHT22;16702;50.898;4.662;2024-02-21T17:01:53;10.40;99.90
29803;DHT22;16702;50.898;4.662;2024-02-21T17:02:25;10.30;99.90
29803;DHT22;16702;50.898;4.662;2024-02-21T17:06:06;10.40;99.90
29803;DHT22;16702;50.898;4.662;2024-02-21T17:08:53;10.30;99.90
29803;DHT22;16702;50.898;4.662;2024-02-21T17:12:04;10.40;99.90
29803;DHT22;16702;50.898;4.662;2024-02-21T17:17:30;10.30;99.90
29803;DHT22;16702;50.898;4.662;2024-02-21T17:18:14;10.20;99.90
29803;DHT22;16702;50.898;4.662;2024-02-21T17:21:20;10.30;99.90
29803;DHT22;16702;50.898;4.662;2024-02-21T17:24:15;10.20;99.90
29803;DHT22;16702;50.898;4.662;2024-02-21T17:27:18;10.30;99.90
29803;DHT22;16702;50.898;4.662;2024-02-21T17:30:34;10.30;99.90
29803;DHT22;16702;50.898;4.662;2024-02-21T17:37:36;10.30;99.90
29803;DHT22;16702;50.898;4.662;2024-02-21T17:40:31;10.30;99.90
29803;DHT22;16702;50.898;4.662;2024-02-21T17:46:18;10.30;99.90
29803;DHT22;16702;50.898;4.662;2024-02-21T17:46:55;10.20;99.90
29803;DHT22;16702;50.898;4.662;2024-02-21T17:50:26;10.30;99.90
29803;DHT22;16702;50.898;4.662;2024-02-21T17:53:34;10.20;99.90
29803;DHT22;16702;50.898;4.662;2024-02-21T17:56:49;10.30;99.90
29803;DHT22;16702;50.898;4.662;2024-02-21T18:00:07;10.30;99.90
29803;DHT22;16702;50.898;4.662;2024-02-21T18:03:14;10.20;99.90
29803;DHT22;16702;50.898;4.662;2024-02-21T18:06:39;10.20;99.90
29803;DHT22;16702;50.898;4.662;2024-02-21T18:09:52;10.30;99.90
29803;DHT22;16702;50.898;4.662;2024-02-21T18:15:41;10.30;99.90
29803;DHT22;16702;50.898;4.662;2024-02-21T18:17:38;10.30;99.90
29803;DHT22;16702;50.898;4.662;2024-02-21T18:20:03;10.30;99.90
29803;DHT22;16702;50.898;4.662;2024-02-21T18:27:16;10.30;99.90
29803;DHT22;16702;50.898;4.662;2024-02-21T18:30:34;10.30;99.90
29803;DHT22;16702;50.898;4.662;2024-02-21T18:33:33;10.40;99.90
29803;DHT22;16702;50.898;4.662;2024-02-21T18:36:57;10.40;99.90
29803;DHT22;16702;50.898;4.662;2024-02-21T18:39:45;10.30;99.90
29803;DHT22;16702;50.898;4.662;2024-02-21T18:43:44;10.40;99.90
29803;DHT22;16702;50.898;4.662;2024-02-21T18:46:04;10.40;99.90
29803;DHT22;16702;50.898;4.662;2024-02-21T18:49:22;10.30;99.90
29803;DHT22;16702;50.898;4.662;2024-02-21T18:52:19;10.40;99.90
29803;DHT22;16702;50.898;4.662;2024-02-21T18:55:14;10.40;99.90
29803;DHT22;16702;50.898;4.662;2024-02-21T18:58:01;10.40;99.90
29803;DHT22;16702;50.898;4.662;2024-02-21T19:04:34;10.40;99.90
29803;DHT22;16702;50.898;4.662;2024-02-21T19:07:32;10.40;99.90
29803;DHT22;16702;50.898;4.662;2024-02-21T19:10:34;10.30;99.90
29803;DHT22;16702;50.898;4.662;2024-02-21T19:13:56;10.40;99.90
29803;DHT22;16702;50.898;4.662;2024-02-21T19:16:57;10.30;99.90
29803;DHT22;16702;50.898;4.662;2024-02-21T19:22:58;10.40;99.90
29803;DHT22;16702;50.898;4.662;2024-02-21T19:26:26;10.40;99.90
29803;DHT22;16702;50.898;4.662;2024-02-21T19:33:30;10.50;99.90
29803;DHT22;16702;50.898;4.662;2024-02-21T19:36:26;10.30;99.90
29803;DHT22;16702;50.898;4.662;2024-02-21T19:39:48;10.30;99.90
29803;DHT22;16702;50.898;4.662;2024-02-21T19:43:02;10.30;99.90
29803;DHT22;16702;50.898;4.662;2024-02-21T19:50:09;10.40;99.90
29803;DHT22;16702;50.898;4.662;2024-02-21T19:53:13;10.40;99.90
29803;DHT22;16702;50.898;4.662;2024-02-21T19:56:21;10.40;99.90
29803;DHT22;16702;50.898;4.662;2024-02-21T19:59:28;10.40;99.90
29803;DHT22;16702;50.898;4.662;2024-02-21T20:05:43;10.40;99.90
29803;DHT22;16702;50.898;4.662;2024-02-21T20:08:55;10.40;99.90
29803;DHT22;16702;50.898;4.662;2024-02-21T20:12:06;10.40;99.90
29803;DHT22;16702;50.898;4.662;2024-02-21T20:19:26;10.40;99.90
29803;DHT22;16702;50.898;4.662;2024-02-21T20:28:40;10.50;99.90
29803;DHT22;16702;50.898;4.662;2024-02-21T20:31:34;10.50;99.90
29803;DHT22;16702;50.898;4.662;2024-02-21T20:34:44;10.50;99.90
29803;DHT22;16702;50.898;4.662;2024-02-21T20:38:04;10.50;99.90
29803;DHT22;16702;50.898;4.662;2024-02-21T20:44:29;10.50;99.90
29803;DHT22;16702;50.898;4.662;2024-02-21T20:50:05;10.50;99.90
29803;DHT22;16702;50.898;4.662;2024-02-21T20:50:46;10.40;99.90
29803;DHT22;16702;50.898;4.662;2024-02-21T20:53:53;10.40;99.90
29803;DHT22;16702;50.898;4.662;2024-02-21T20:57:05;10.40;99.90
29803;DHT22;16702;50.898;4.662;2024-02-21T21:00:18;10.40;99.90
29803;DHT22;16702;50.898;4.662;2024-02-21T21:05:32;10.50;99.90
29803;DHT22;16702;50.898;4.662;2024-02-21T21:07:19;10.50;99.90
29803;DHT22;16702;50.898;4.662;2024-02-21T21:10:17;10.40;99.90
29803;DHT22;16702;50.898;4.662;2024-02-21T21:13:40;10.40;99.90
29803;DHT22;16702;50.898;4.662;2024-02-21T21:16:51;10.40;99.90
29803;DHT22;16702;50.898;4.662;2024-02-21T21:20:04;10.50;99.90
29803;DHT22;16702;50.898;4.662;2024-02-21T21:23:43;10.40;99.90
29803;DHT22;16702;50.898;4.662;2024-02-21T21:32:34;10.40;99.90
29803;DHT22;16702;50.898;4.662;2024-02-21T21:34:38;10.50;99.90
29803;DHT22;16702;50.898;4.662;2024-02-21T21:37:34;10.40;99.90
29803;DHT22;16702;50.898;4.662;2024-02-21T21:43:29;10.30;99.90
29803;DHT22;16702;50.898;4.662;2024-02-21T21:44:51;10.50;99.90
29803;DHT22;16702;50.898;4.662;2024-02-21T21:47:37;10.50;99.90
29803;DHT22;16702;50.898;4.662;2024-02-21T21:50:25;10.50;99.90
29803;DHT22;16702;50.898;4.662;2024-02-21T21:53:17;10.50;99.90
29803;DHT22;16702;50.898;4.662;2024-02-21T21:56:38;10.50;99.90
29803;DHT22;16702;50.898;4.662;2024-02-21T21:59:38;10.50;99.90
29803;DHT22;16702;50.898;4.662;2024-02-21T22:05:57;10.50;99.90
29803;DHT22;16702;50.898;4.662;2024-02-21T22:09:27;10.50;99.90